This is the latest recevied weather packets stored in our database for station/object XE2G-31. If no packets are shown the sender has not sent any weather packets the latest 10 day(s).
| Time | Temp. | Humidity | Pressure | Rain* | Wind** | Luminosity | Snow |
|---|---|---|---|---|---|---|---|
| 1778163913 | 27.22° C | 63% | 872 hPa | - | - | - | - |
| 1778162966 | 28.33° C | 58% | 872 hPa | - | - | - | - |
| 1778162019 | 27.78° C | 58% | 872 hPa | - | - | - | - |
| 1778161073 | 26.67° C | 62% | 871 hPa | - | - | - | - |
| 1778160126 | 25.56° C | 66% | 871 hPa | - | - | - | - |
| 1778159179 | 24.44° C | 71% | 871 hPa | - | - | - | - |
| 1778158233 | 25.56° C | 67% | 871 hPa | - | - | - | - |
| 1778157285 | 22.78° C | 75% | 871 hPa | - | - | - | - |
| 1778156338 | 22.78° C | 73% | 871 hPa | - | - | - | - |
| 1778155392 | 22.78° C | 74% | 871 hPa | - | - | - | - |
| 1778154445 | 22.78° C | 74% | 870 hPa | - | - | - | - |
| 1778153498 | 22.22° C | 80% | 870 hPa | - | - | - | - |
| 1778152551 | 22.78° C | 80% | 870 hPa | - | - | - | - |
| 1778151604 | 22.78° C | 80% | 870 hPa | - | - | - | - |
| 1778150657 | 22.78° C | 78% | 870 hPa | - | - | - | - |
| 1778149711 | 22.78° C | 76% | 870 hPa | - | - | - | - |
| 1778148764 | 23.33° C | 74% | 870 hPa | - | - | - | - |
| 1778147817 | 23.89° C | 70% | 870 hPa | - | - | - | - |
| 1778146870 | 23.89° C | 68% | 870 hPa | - | - | - | - |
| 1778145923 | 23.89° C | 66% | 870 hPa | - | - | - | - |
| 1778144976 | 24.44° C | 67% | 870 hPa | - | - | - | - |
| 1778144030 | 25° C | 64% | 870 hPa | - | - | - | - |
| 1778143083 | 24.44° C | 63% | 870 hPa | - | - | - | - |
| 1778142136 | 25° C | 57% | 870 hPa | - | - | - | - |
| 1778141189 | 25° C | 58% | 870 hPa | - | - | - | - |
* Rain since midnight (hover to see other rain measurements)
** Current wind speed in m/s (hover to see current wind gust speed)